Time;durP1;ratioP1;P1;durP2;ratioP2;P2;SDS_P1;SDS_P2;PMS_P1;PMS_P2;Temp;Humidity;BMP_temperature;BMP_pressure;BME280_temperature;BME280_humidity;BME280_pressure;Samples;Min_cycle;Max_cycle;Signal;HPM_P1;HPM_P2
2024/04/24 00:02:02;;;;;;;7.38;2.17;;;6.90;99.90;;;;;;5393558;26;20010;-69
2024/04/24 00:04:29;;;;;;;7.35;1.63;;;6.90;99.90;;;;;;5390798;26;20035;-69
2024/04/24 00:06:56;;;;;;;7.75;2.00;;;6.90;99.90;;;;;;5386205;26;20003;-69
2024/04/24 00:09:23;;;;;;;9.80;2.50;;;6.90;99.90;;;;;;5379750;26;20069;-69
2024/04/24 00:11:50;;;;;;;10.63;2.38;;;6.90;99.90;;;;;;5381025;26;20000;-69
2024/04/24 00:14:18;;;;;;;7.03;1.70;;;6.90;99.90;;;;;;5390839;26;20000;-68
2024/04/24 00:16:45;;;;;;;9.02;2.13;;;6.90;99.90;;;;;;5403006;26;20046;-69
2024/04/24 00:19:12;;;;;;;12.45;2.35;;;6.90;99.90;;;;;;5396868;26;20000;-70
2024/04/24 00:21:38;;;;;;;12.27;1.98;;;6.80;99.90;;;;;;5393308;26;20015;-69
2024/04/24 00:24:05;;;;;;;6.90;1.73;;;6.70;99.90;;;;;;5407534;26;20000;-69
2024/04/24 00:26:33;;;;;;;7.95;1.88;;;6.70;99.90;;;;;;5378513;26;20078;-69
2024/04/24 00:29:00;;;;;;;11.48;3.20;;;6.60;99.90;;;;;;5374318;26;19996;-69
2024/04/24 00:31:27;;;;;;;8.50;2.08;;;6.60;99.90;;;;;;5397995;26;20011;-69
2024/04/24 00:33:54;;;;;;;10.50;2.33;;;6.60;99.90;;;;;;5394727;26;20084;-69
2024/04/24 00:36:21;;;;;;;8.15;2.50;;;6.60;99.90;;;;;;5401033;26;20029;-69
2024/04/24 00:38:48;;;;;;;8.82;2.92;;;6.50;99.90;;;;;;5378432;26;20078;-69
2024/04/24 00:41:15;;;;;;;10.50;2.53;;;6.50;99.90;;;;;;5401467;26;20478;-68
2024/04/24 00:43:42;;;;;;;7.10;2.35;;;6.50;99.90;;;;;;5397651;26;20013;-69
2024/04/24 00:46:09;;;;;;;10.63;2.67;;;6.50;99.90;;;;;;5395159;26;19996;-69
2024/04/24 00:48:37;;;;;;;13.10;2.38;;;6.50;99.90;;;;;;5392639;26;20356;-67
2024/04/24 00:51:04;;;;;;;7.65;2.33;;;6.50;99.90;;;;;;5373469;26;20011;-68
2024/04/24 00:53:31;;;;;;;6.07;2.10;;;6.50;99.90;;;;;;5391450;26;20011;-68
2024/04/24 00:55:57;;;;;;;11.75;2.75;;;6.50;99.90;;;;;;5391133;26;20000;-68
2024/04/24 00:58:24;;;;;;;10.73;2.83;;;6.60;99.90;;;;;;5399577;26;20022;-68
2024/04/24 01:00:51;;;;;;;6.50;2.15;;;6.60;99.90;;;;;;5388536;26;20777;-68
2024/04/24 01:03:18;;;;;;;9.02;1.77;;;6.60;99.90;;;;;;5387420;26;20199;-68
2024/04/24 01:05:45;;;;;;;11.32;2.35;;;6.60;99.90;;;;;;5383700;26;20455;-68
2024/04/24 01:08:12;;;;;;;11.57;2.25;;;6.60;99.90;;;;;;5387509;26;20516;-68
2024/04/24 01:10:39;;;;;;;8.55;1.73;;;6.60;99.90;;;;;;5378663;26;20016;-68
2024/04/24 01:13:06;;;;;;;7.18;2.05;;;6.50;99.90;;;;;;5392987;26;20039;-68
2024/04/24 01:15:33;;;;;;;11.95;2.95;;;6.60;99.90;;;;;;5389984;26;20335;-68
2024/04/24 01:18:00;;;;;;;9.00;2.38;;;6.60;99.90;;;;;;5379487;26;20019;-68
2024/04/24 01:20:27;;;;;;;10.05;1.92;;;6.50;99.90;;;;;;5389546;26;19996;-68
2024/04/24 01:23:06;;;;;;;17.50;4.05;;;6.60;99.90;;;;;;5367321;26;20000;-68
2024/04/24 01:25:49;;;;;;;10.07;1.88;;;6.60;99.90;;;;;;5361162;26;19999;-68
2024/04/24 01:28:16;;;;;;;8.95;2.38;;;6.60;99.90;;;;;;5384886;26;20012;-69
2024/04/24 01:30:43;;;;;;;14.90;2.63;;;6.50;99.90;;;;;;5382775;26;19996;-69
2024/04/24 01:33:10;;;;;;;13.63;2.30;;;6.50;99.90;;;;;;5391925;26;20076;-69
2024/04/24 01:35:37;;;;;;;17.42;2.65;;;6.50;99.90;;;;;;5402018;26;20085;-69
2024/04/24 01:38:04;;;;;;;9.90;3.00;;;6.40;99.90;;;;;;5402909;26;20000;-69
2024/04/24 01:40:31;;;;;;;9.23;2.25;;;6.40;99.90;;;;;;5389354;26;20122;-69
2024/04/24 01:42:58;;;;;;;7.88;2.85;;;6.30;99.90;;;;;;5383658;26;20019;-69
2024/04/24 01:45:25;;;;;;;14.18;1.98;;;6.30;99.90;;;;;;5393455;26;20022;-69
2024/04/24 01:47:52;;;;;;;14.95;1.95;;;6.20;99.90;;;;;;5388464;26;20004;-70
2024/04/24 01:50:19;;;;;;;9.88;2.00;;;6.20;99.90;;;;;;5384722;26;20528;-68
2024/04/24 01:52:46;;;;;;;10.20;3.08;;;6.10;99.90;;;;;;5385229;26;20000;-68
2024/04/24 01:55:13;;;;;;;7.60;2.25;;;6.10;99.90;;;;;;5400680;26;20010;-69
2024/04/24 01:57:40;;;;;;;6.65;1.50;;;6.00;99.90;;;;;;5392587;26;20005;-69
2024/04/24 02:00:07;;;;;;;11.23;2.30;;;6.10;99.90;;;;;;5392448;26;20001;-68
2024/04/24 02:02:34;;;;;;;12.07;1.92;;;6.10;99.90;;;;;;5386245;26;20012;-69
2024/04/24 02:05:01;;;;;;;11.05;1.88;;;6.20;99.90;;;;;;5382895;26;19999;-70
2024/04/24 02:07:28;;;;;;;13.20;2.00;;;6.30;99.90;;;;;;5378763;26;20023;-69
2024/04/24 02:09:55;;;;;;;9.90;2.42;;;6.30;99.90;;;;;;5380792;26;20467;-68
2024/04/24 02:12:22;;;;;;;15.82;2.17;;;6.30;99.90;;;;;;5390880;26;20463;-70
2024/04/24 02:14:49;;;;;;;11.57;2.17;;;6.40;99.90;;;;;;5396233;26;20072;-71
2024/04/24 02:17:15;;;;;;;10.20;2.63;;;6.50;99.90;;;;;;5409354;26;19996;-69
2024/04/24 02:19:43;;;;;;;9.80;1.52;;;6.50;99.90;;;;;;5386621;26;19999;-69
2024/04/24 02:22:09;;;;;;;11.95;1.98;;;6.50;99.90;;;;;;5397310;26;20011;-69
2024/04/24 02:27:22;;;;;;;9.73;2.05;;;6.60;99.90;;;;;;5388537;26;20015;-69
2024/04/24 02:29:49;;;;;;;8.15;1.90;;;6.60;99.90;;;;;;5385185;26;20541;-69
2024/04/24 02:32:22;;;;;;;12.00;2.53;;;6.60;99.90;;;;;;5402211;26;20012;-70
2024/04/24 02:34:49;;;;;;;13.32;2.53;;;6.60;99.90;;;;;;5398332;26;20526;-70
2024/04/24 02:37:16;;;;;;;7.68;2.42;;;6.70;99.90;;;;;;5388102;26;20005;-71
2024/04/24 02:39:43;;;;;;;12.00;1.92;;;6.70;99.90;;;;;;5390837;26;19996;-70
2024/04/24 02:42:10;;;;;;;10.25;2.17;;;6.70;99.90;;;;;;5393595;26;20016;-71
2024/04/24 02:44:37;;;;;;;5.25;1.75;;;6.60;99.90;;;;;;5402935;26;20008;-70
2024/04/24 02:47:04;;;;;;;10.88;2.03;;;6.60;99.90;;;;;;5396950;26;20003;-70
2024/04/24 02:49:31;;;;;;;9.95;2.28;;;6.70;99.90;;;;;;5403871;26;19996;-70
2024/04/24 02:51:58;;;;;;;9.25;2.40;;;6.70;99.90;;;;;;5391350;26;20068;-70
2024/04/24 02:54:25;;;;;;;12.60;2.15;;;6.70;99.90;;;;;;5393413;26;19999;-69
2024/04/24 02:56:52;;;;;;;19.27;2.38;;;6.80;99.90;;;;;;5398260;26;20528;-70
2024/04/24 02:59:19;;;;;;;14.98;3.33;;;6.80;99.90;;;;;;5383513;26;19999;-72
2024/04/24 03:01:46;;;;;;;9.55;2.00;;;6.80;99.90;;;;;;5399525;26;20056;-70
2024/04/24 03:04:14;;;;;;;10.52;2.90;;;6.80;99.90;;;;;;5387140;26;20012;-70
2024/04/24 03:06:42;;;;;;;12.05;2.33;;;6.80;99.90;;;;;;5389148;26;20000;-70
2024/04/24 03:09:12;;;;;;;9.38;1.60;;;6.80;99.90;;;;;;5391523;26;20458;-69
2024/04/24 03:11:39;;;;;;;8.98;2.00;;;6.80;99.90;;;;;;5381424;26;20032;-69
2024/04/24 03:14:06;;;;;;;12.68;3.47;;;6.80;99.90;;;;;;5391763;26;20024;-70
2024/04/24 03:16:33;;;;;;;11.63;2.30;;;6.80;99.90;;;;;;5396718;26;20487;-70
2024/04/24 03:19:01;;;;;;;7.15;1.77;;;6.80;99.90;;;;;;5380812;26;20002;-70
2024/04/24 03:21:28;;;;;;;8.43;2.10;;;6.80;99.90;;;;;;5409810;26;20036;-69
2024/04/24 03:23:55;;;;;;;10.73;3.08;;;6.80;99.90;;;;;;5394586;26;20028;-69
2024/04/24 03:26:22;;;;;;;11.68;2.35;;;6.90;99.90;;;;;;5382011;26;20592;-70
2024/04/24 03:28:49;;;;;;;13.80;1.90;;;6.90;99.90;;;;;;5393140;26;20462;-69
2024/04/24 03:31:16;;;;;;;17.48;2.33;;;6.90;99.90;;;;;;5397350;26;20008;-69
2024/04/24 03:33:42;;;;;;;15.88;1.98;;;6.90;99.90;;;;;;5393552;26;19999;-69
2024/04/24 03:36:09;;;;;;;7.85;2.05;;;6.90;99.90;;;;;;5392140;26;20003;-69
2024/04/24 03:38:36;;;;;;;11.30;2.00;;;7.00;99.90;;;;;;5402705;26;20004;-69
2024/04/24 03:41:03;;;;;;;8.75;2.70;;;7.00;99.90;;;;;;5383463;26;20057;-69
2024/04/24 03:43:30;;;;;;;8.85;1.88;;;7.00;99.90;;;;;;5399404;26;20004;-70
2024/04/24 03:45:57;;;;;;;9.98;1.75;;;7.00;99.90;;;;;;5388564;26;20015;-70
2024/04/24 03:48:24;;;;;;;11.70;1.55;;;7.00;99.90;;;;;;5382083;26;20000;-69
2024/04/24 03:50:51;;;;;;;11.23;2.15;;;7.00;99.90;;;;;;5391547;26;20072;-69
2024/04/24 03:53:18;;;;;;;24.08;3.10;;;6.90;99.90;;;;;;5388729;26;20004;-69
2024/04/24 03:55:45;;;;;;;8.63;1.50;;;7.00;99.90;;;;;;5383734;26;20008;-69
2024/04/24 03:58:12;;;;;;;15.90;2.03;;;7.00;99.90;;;;;;5398575;26;20019;-70
2024/04/24 04:00:39;;;;;;;9.35;1.98;;;7.00;99.90;;;;;;5400962;26;20073;-69
2024/04/24 04:03:09;;;;;;;15.45;3.75;;;6.90;99.90;;;;;;5389426;26;20003;-69
2024/04/24 04:05:37;;;;;;;12.95;2.88;;;7.00;99.90;;;;;;5401661;26;20489;-68
2024/04/24 04:08:04;;;;;;;11.23;2.17;;;7.00;99.90;;;;;;5388665;26;20019;-69
2024/04/24 04:10:31;;;;;;;10.70;2.08;;;6.90;99.90;;;;;;5399149;26;20466;-70
2024/04/24 04:12:58;;;;;;;4.68;1.40;;;6.90;99.90;;;;;;5394891;26;20003;-70
2024/04/24 04:15:25;;;;;;;10.48;1.88;;;6.90;99.90;;;;;;5390540;26;20539;-70
2024/04/24 04:17:52;;;;;;;8.65;2.17;;;6.90;99.90;;;;;;5408856;26;20008;-69
2024/04/24 04:20:19;;;;;;;6.80;1.80;;;7.00;99.90;;;;;;5401478;26;20049;-69
2024/04/24 04:22:46;;;;;;;11.80;2.28;;;7.00;99.90;;;;;;5383900;26;20004;-69
2024/04/24 04:25:13;;;;;;;10.13;2.67;;;7.00;99.90;;;;;;5383957;26;20013;-69
2024/04/24 04:27:40;;;;;;;13.65;2.20;;;6.90;99.90;;;;;;5381160;26;20092;-69
2024/04/24 04:30:07;;;;;;;12.32;2.20;;;6.90;99.90;;;;;;5388922;26;20073;-69
2024/04/24 04:32:34;;;;;;;17.95;2.40;;;6.90;99.90;;;;;;5384096;26;20085;-69
2024/04/24 04:35:02;;;;;;;12.77;2.72;;;6.90;99.90;;;;;;5393304;26;19999;-69
2024/04/24 04:37:29;;;;;;;13.05;3.33;;;6.90;99.90;;;;;;5397921;26;20015;-69
2024/04/24 04:39:56;;;;;;;7.95;2.15;;;6.90;99.90;;;;;;5391131;26;20532;-69
2024/04/24 04:42:23;;;;;;;8.63;1.95;;;6.90;99.90;;;;;;5387498;26;20011;-69
2024/04/24 04:44:50;;;;;;;11.98;2.05;;;6.90;99.90;;;;;;5388536;26;20068;-70
2024/04/24 04:47:16;;;;;;;12.85;1.98;;;6.90;99.90;;;;;;5387454;26;20072;-69
2024/04/24 04:49:43;;;;;;;13.25;1.83;;;6.90;99.90;;;;;;5387834;26;20000;-69
2024/04/24 04:52:10;;;;;;;11.70;2.33;;;6.90;99.90;;;;;;5390882;26;20015;-69
2024/04/24 04:54:37;;;;;;;13.65;2.92;;;6.90;99.90;;;;;;5389733;26;20011;-68
2024/04/24 04:57:04;;;;;;;12.02;3.10;;;6.90;99.90;;;;;;5390195;26;20074;-69
2024/04/24 04:59:31;;;;;;;13.95;2.33;;;7.00;99.90;;;;;;5402275;26;20054;-69
2024/04/24 05:01:58;;;;;;;13.30;2.65;;;7.00;99.90;;;;;;5379414;26;20000;-69
2024/04/24 05:04:25;;;;;;;10.20;3.45;;;7.00;99.90;;;;;;5396088;26;20675;-69
2024/04/24 05:06:52;;;;;;;12.05;2.05;;;7.00;99.90;;;;;;5391855;26;20011;-69
2024/04/24 05:09:19;;;;;;;10.23;2.13;;;7.00;99.90;;;;;;5384294;26;20023;-70
2024/04/24 05:11:48;;;;;;;8.77;1.83;;;7.00;99.90;;;;;;5386383;26;20011;-69
2024/04/24 05:14:16;;;;;;;20.98;2.40;;;7.00;99.90;;;;;;5389960;26;20080;-69
2024/04/24 05:16:43;;;;;;;8.10;2.05;;;7.00;99.90;;;;;;5390852;26;20463;-69
2024/04/24 05:19:10;;;;;;;12.50;1.88;;;7.00;99.90;;;;;;5378751;26;20004;-69
2024/04/24 05:21:37;;;;;;;11.27;1.90;;;7.00;99.90;;;;;;5383928;26;20008;-70
2024/04/24 05:24:04;;;;;;;9.88;1.77;;;7.00;99.90;;;;;;5386929;26;20082;-72
2024/04/24 05:29:16;;;;;;;11.00;1.58;;;7.00;99.90;;;;;;5396719;26;20184;-69
2024/04/24 05:31:43;;;;;;;19.75;2.70;;;7.00;99.90;;;;;;5394606;26;20011;-69
2024/04/24 05:34:10;;;;;;;9.15;2.28;;;7.00;99.90;;;;;;5375750;26;20410;-70
2024/04/24 05:36:37;;;;;;;9.18;2.00;;;7.10;99.90;;;;;;5384528;26;20000;-70
2024/04/24 05:39:04;;;;;;;14.00;2.17;;;7.10;99.90;;;;;;5390106;26;20011;-70
2024/04/24 05:41:31;;;;;;;6.78;1.50;;;7.20;99.90;;;;;;5383400;26;20001;-70
2024/04/24 05:43:58;;;;;;;13.48;4.10;;;7.20;99.90;;;;;;5378755;26;20335;-70
2024/04/24 05:46:25;;;;;;;14.18;1.98;;;7.20;99.90;;;;;;5378195;26;20000;-70
2024/04/24 05:48:52;;;;;;;20.90;4.55;;;7.20;99.90;;;;;;5390987;26;19999;-70
2024/04/24 05:51:18;;;;;;;7.93;1.63;;;7.30;99.90;;;;;;5384235;26;20012;-70
2024/04/24 05:53:46;;;;;;;16.00;3.00;;;7.30;99.90;;;;;;5390756;26;20052;-69
2024/04/24 05:56:13;;;;;;;10.85;2.47;;;7.30;99.90;;;;;;5405592;26;20056;-68
2024/04/24 05:58:42;;;;;;;10.18;1.60;;;7.30;99.90;;;;;;5399671;26;20004;-71
2024/04/24 06:01:10;;;;;;;13.95;2.92;;;7.30;99.90;;;;;;5390794;26;20072;-72
2024/04/24 06:03:37;;;;;;;17.27;2.33;;;7.30;99.90;;;;;;5386387;26;20052;-71
2024/04/24 06:06:04;;;;;;;12.43;2.83;;;7.30;99.90;;;;;;5383859;26;20548;-72
2024/04/24 06:08:31;;;;;;;10.52;3.47;;;7.30;99.90;;;;;;5379748;26;20511;-72
2024/04/24 06:10:58;;;;;;;8.05;1.75;;;7.30;99.90;;;;;;5398760;26;20589;-71
2024/04/24 06:13:25;;;;;;;11.75;1.77;;;7.40;99.90;;;;;;5395121;26;20011;-72
2024/04/24 06:15:52;;;;;;;7.75;1.67;;;7.40;99.90;;;;;;5392789;26;19996;-72
2024/04/24 06:18:24;;;;;;;12.52;2.05;;;7.40;99.90;;;;;;5376485;26;20602;-72
2024/04/24 06:20:51;;;;;;;13.85;3.25;;;7.40;99.90;;;;;;5389068;26;20091;-74
2024/04/24 06:23:18;;;;;;;11.10;2.00;;;7.40;99.90;;;;;;5392181;26;20494;-72
2024/04/24 06:25:45;;;;;;;13.60;1.92;;;7.40;99.90;;;;;;5397343;26;20401;-71
2024/04/24 06:28:13;;;;;;;12.07;1.38;;;7.30;99.90;;;;;;5383009;26;20369;-72
2024/04/24 06:30:41;;;;;;;10.85;1.48;;;7.30;99.90;;;;;;5398049;26;20057;-72
2024/04/24 06:33:08;;;;;;;9.82;1.73;;;7.40;99.90;;;;;;5396571;26;20016;-73
2024/04/24 06:35:35;;;;;;;9.45;1.67;;;7.40;99.90;;;;;;5396646;26;20023;-73
2024/04/24 06:38:03;;;;;;;8.38;1.85;;;7.40;99.90;;;;;;5403530;26;20015;-72
2024/04/24 06:40:30;;;;;;;24.48;4.15;;;7.40;99.90;;;;;;5401661;26;20280;-72
2024/04/24 06:42:57;;;;;;;7.65;1.08;;;7.40;99.90;;;;;;5394006;26;20004;-72
2024/04/24 06:45:24;;;;;;;10.73;2.10;;;7.40;99.90;;;;;;5399857;26;20072;-71
2024/04/24 06:47:51;;;;;;;15.32;1.88;;;7.50;99.90;;;;;;5384323;26;20008;-71
2024/04/24 06:50:18;;;;;;;4.38;1.65;;;7.50;99.90;;;;;;5395639;26;20014;-70
2024/04/24 06:52:45;;;;;;;9.82;1.98;;;7.60;99.90;;;;;;5397191;26;20004;-70
2024/04/24 06:55:12;;;;;;;8.25;1.33;;;7.50;99.90;;;;;;5396437;26;20879;-71
2024/04/24 06:57:39;;;;;;;14.35;1.63;;;7.60;99.90;;;;;;5407382;26;19999;-70
2024/04/24 07:00:07;;;;;;;10.27;2.08;;;7.60;99.90;;;;;;5387455;26;20475;-70
2024/04/24 07:02:34;;;;;;;21.05;1.88;;;7.70;99.90;;;;;;5394167;26;20135;-70
2024/04/24 07:05:01;;;;;;;7.63;1.63;;;7.70;99.90;;;;;;5400995;26;20005;-70
2024/04/24 07:07:28;;;;;;;10.15;2.10;;;7.70;99.90;;;;;;5398332;26;20004;-70
2024/04/24 07:09:55;;;;;;;14.23;1.52;;;7.80;99.90;;;;;;5397844;26;20001;-71
2024/04/24 07:12:22;;;;;;;11.60;1.77;;;7.80;99.90;;;;;;5401887;26;20018;-65
2024/04/24 07:14:49;;;;;;;8.88;3.30;;;8.00;99.90;;;;;;5390296;26;20026;-68
2024/04/24 07:17:16;;;;;;;7.15;2.05;;;8.00;99.90;;;;;;5399022;26;20073;-69
2024/04/24 07:19:43;;;;;;;11.63;1.75;;;8.00;99.90;;;;;;5393103;26;20336;-68
2024/04/24 07:22:10;;;;;;;16.10;3.08;;;8.00;99.90;;;;;;5399385;26;20004;-69
2024/04/24 07:24:37;;;;;;;8.10;1.48;;;8.10;99.90;;;;;;5394444;26;20467;-69
2024/04/24 07:27:04;;;;;;;10.02;1.75;;;8.20;99.90;;;;;;5396305;26;20027;-69
2024/04/24 07:29:31;;;;;;;9.60;1.75;;;8.30;99.90;;;;;;5386842;26;19996;-69
2024/04/24 07:31:58;;;;;;;9.57;1.70;;;8.20;99.90;;;;;;5378580;26;20642;-69
2024/04/24 07:34:25;;;;;;;12.43;2.10;;;8.20;99.90;;;;;;5369254;26;20088;-70
2024/04/24 07:36:52;;;;;;;5.75;2.15;;;8.20;99.90;;;;;;5375399;26;21870;-69
2024/04/24 07:39:19;;;;;;;10.02;1.60;;;8.30;99.90;;;;;;5399067;26;20011;-69
2024/04/24 07:41:46;;;;;;;7.57;2.28;;;8.40;99.90;;;;;;5390647;26;20077;-70
2024/04/24 07:44:13;;;;;;;10.80;2.17;;;8.40;99.90;;;;;;5400442;26;20014;-69
2024/04/24 07:46:40;;;;;;;9.20;1.95;;;8.40;99.90;;;;;;5390002;26;20018;-69
2024/04/24 07:49:07;;;;;;;11.73;1.73;;;8.50;99.90;;;;;;5394452;26;20007;-70
2024/04/24 07:51:33;;;;;;;7.00;2.05;;;8.60;99.90;;;;;;5392936;26;20004;-69
2024/04/24 07:54:00;;;;;;;6.82;2.70;;;8.60;99.90;;;;;;5396917;26;20000;-69
2024/04/24 07:56:29;;;;;;;12.32;1.90;;;8.50;99.90;;;;;;5395071;26;20003;-63
2024/04/24 07:58:55;;;;;;;8.15;1.75;;;8.50;99.90;;;;;;5388244;26;20585;-69
2024/04/24 08:01:23;;;;;;;6.68;1.45;;;8.60;99.90;;;;;;5391518;26;20015;-69
2024/04/24 08:03:49;;;;;;;10.98;1.83;;;8.70;99.90;;;;;;5385744;26;20076;-69
2024/04/24 08:06:17;;;;;;;8.52;2.00;;;8.80;99.90;;;;;;5404475;26;20007;-69
2024/04/24 08:08:44;;;;;;;11.73;2.00;;;8.90;99.90;;;;;;5392699;26;20000;-69
2024/04/24 08:11:11;;;;;;;6.10;1.35;;;8.90;99.90;;;;;;5395755;26;20004;-68
2024/04/24 08:13:38;;;;;;;10.85;1.80;;;9.00;99.90;;;;;;5387024;26;20000;-71
2024/04/24 08:16:05;;;;;;;12.60;1.80;;;9.10;99.90;;;;;;5393203;26;20000;-68
2024/04/24 08:18:33;;;;;;;7.05;1.75;;;9.00;99.90;;;;;;5390993;26;20000;-69
2024/04/24 08:21:01;;;;;;;9.45;1.48;;;9.00;99.90;;;;;;5389909;26;20081;-69
2024/04/24 08:23:28;;;;;;;8.85;1.42;;;9.00;99.90;;;;;;5380234;26;20000;-70
2024/04/24 08:25:55;;;;;;;7.40;1.90;;;8.90;99.90;;;;;;5379182;26;20015;-70
2024/04/24 08:28:23;;;;;;;10.73;2.63;;;8.90;99.90;;;;;;5385962;26;20096;-70
2024/04/24 08:31:05;;;;;;;9.33;1.80;;;9.00;99.90;;;;;;5379107;26;20011;-69
2024/04/24 08:33:33;;;;;;;14.38;2.45;;;8.80;99.90;;;;;;5390802;26;20317;-70
2024/04/24 08:36:04;;;;;;;10.20;2.25;;;8.80;99.90;;;;;;5397740;26;20076;-69
2024/04/24 08:38:32;;;;;;;6.40;1.08;;;8.80;99.90;;;;;;5395496;26;20003;-71
2024/04/24 08:41:06;;;;;;;9.63;1.83;;;9.00;99.90;;;;;;5386667;26;20156;-70
2024/04/24 08:43:37;;;;;;;11.98;1.80;;;9.10;99.90;;;;;;5396670;26;20014;-71
2024/04/24 08:46:05;;;;;;;6.22;1.45;;;9.20;99.90;;;;;;5401101;26;20011;-71
2024/04/24 08:48:41;;;;;;;8.13;1.50;;;9.20;99.90;;;;;;5386644;26;20483;-70
2024/04/24 08:51:10;;;;;;;6.70;1.30;;;9.30;99.90;;;;;;5382316;26;20473;-71
2024/04/24 08:53:46;;;;;;;15.82;1.80;;;9.40;99.90;;;;;;5390347;26;20072;-72
2024/04/24 08:56:15;;;;;;;11.13;1.60;;;9.40;99.90;;;;;;5387107;26;20714;-70
2024/04/24 08:58:42;;;;;;;17.77;1.92;;;9.40;99.90;;;;;;5383628;26;20405;-69
2024/04/24 09:01:12;;;;;;;5.05;1.10;;;9.20;99.90;;;;;;5372596;26;20487;-69
2024/04/24 09:03:42;;;;;;;11.90;1.95;;;9.40;99.90;;;;;;5400830;26;20576;-69
2024/04/24 09:06:09;;;;;;;8.52;2.03;;;9.50;99.90;;;;;;5375473;26;20701;-69
2024/04/24 09:08:36;;;;;;;5.43;1.10;;;9.60;99.90;;;;;;5355959;26;20004;-70
2024/04/24 09:11:04;;;;;;;10.15;1.67;;;9.70;99.90;;;;;;5396025;26;20455;-69
2024/04/24 09:13:31;;;;;;;5.70;1.45;;;9.60;99.90;;;;;;5384015;26;20015;-70
2024/04/24 09:15:59;;;;;;;8.20;1.77;;;9.50;99.90;;;;;;5366066;26;20014;-70
2024/04/24 09:18:26;;;;;;;11.13;1.80;;;9.60;99.90;;;;;;5389206;26;20004;-70
2024/04/24 09:20:53;;;;;;;10.38;1.52;;;9.60;99.90;;;;;;5383383;26;20008;-69
2024/04/24 09:23:23;;;;;;;11.80;1.27;;;9.60;99.90;;;;;;5388408;26;19999;-70
2024/04/24 09:25:51;;;;;;;4.13;1.58;;;9.60;99.90;;;;;;5378684;26;20336;-69
2024/04/24 09:28:19;;;;;;;5.22;1.20;;;9.70;99.90;;;;;;5394972;26;20007;-69
2024/04/24 09:30:46;;;;;;;5.22;1.20;;;9.70;99.90;;;;;;5396871;26;20014;-69
2024/04/24 09:33:13;;;;;;;3.75;1.13;;;9.80;99.90;;;;;;5365338;26;20004;-69
2024/04/24 09:35:40;;;;;;;4.85;1.17;;;9.80;99.90;;;;;;5398514;26;19995;-69
2024/04/24 09:38:07;;;;;;;3.90;1.50;;;9.80;99.90;;;;;;5363178;26;20000;-68
2024/04/24 09:40:34;;;;;;;34.38;2.97;;;9.80;99.90;;;;;;5393299;26;20019;-68
2024/04/24 09:43:02;;;;;;;8.70;1.60;;;9.80;99.90;;;;;;5386862;26;20409;-67
2024/04/24 09:45:29;;;;;;;4.15;1.38;;;9.80;99.90;;;;;;5399482;26;20015;-68
2024/04/24 09:47:56;;;;;;;9.32;1.50;;;9.90;99.90;;;;;;5375671;26;20085;-68
2024/04/24 09:50:24;;;;;;;10.15;1.95;;;10.10;99.90;;;;;;5385977;26;20045;-70
2024/04/24 09:52:51;;;;;;;6.60;1.58;;;10.20;99.90;;;;;;5394275;26;20027;-69
2024/04/24 09:55:18;;;;;;;3.97;1.20;;;10.20;99.90;;;;;;5389128;26;20000;-69
2024/04/24 09:57:48;;;;;;;7.10;1.30;;;10.20;99.90;;;;;;5369187;26;20012;-67
2024/04/24 10:00:15;;;;;;;8.45;2.00;;;10.20;99.90;;;;;;5375825;26;20766;-68
2024/04/24 10:02:48;;;;;;;5.43;1.23;;;10.20;99.90;;;;;;5396060;26;19999;-69
2024/04/24 10:05:23;;;;;;;8.77;1.45;;;10.20;99.90;;;;;;5390506;26;20019;-69
2024/04/24 10:08:04;;;;;;;5.32;1.40;;;10.20;99.90;;;;;;5386207;26;20062;-69
2024/04/24 10:10:49;;;;;;;4.68;1.63;;;10.60;99.90;;;;;;5380408;26;20040;-69
2024/04/24 10:13:17;;;;;;;10.93;1.75;;;11.20;97.90;;;;;;5390846;26;20462;-69
2024/04/24 10:15:53;;;;;;;6.53;1.40;;;11.90;99.90;;;;;;5393605;26;20007;-69
2024/04/24 10:18:20;;;;;;;9.77;1.60;;;12.00;99.90;;;;;;5391557;26;20078;-69
2024/04/24 10:20:48;;;;;;;7.35;1.55;;;11.70;99.40;;;;;;5390583;26;20019;-69
2024/04/24 10:23:15;;;;;;;11.45;2.42;;;11.60;99.80;;;;;;5365741;26;20012;-69
2024/04/24 10:25:42;;;;;;;8.02;1.92;;;11.60;99.10;;;;;;5380142;26;20011;-69
2024/04/24 10:28:09;;;;;;;7.60;1.40;;;11.50;98.60;;;;;;5387431;26;20001;-67
2024/04/24 10:30:37;;;;;;;7.05;1.67;;;11.60;99.60;;;;;;5385848;26;20077;-68
2024/04/24 10:33:05;;;;;;;3.42;1.00;;;11.50;97.80;;;;;;5341550;26;20004;-68
2024/04/24 10:35:32;;;;;;;7.10;1.40;;;11.20;97.50;;;;;;5384500;26;20014;-68
2024/04/24 10:38:03;;;;;;;7.35;1.65;;;10.80;96.90;;;;;;5382229;26;20000;-68
2024/04/24 10:40:31;;;;;;;9.25;1.35;;;10.70;96.60;;;;;;5378748;26;20386;-68
2024/04/24 10:42:58;;;;;;;7.22;1.48;;;10.70;98.00;;;;;;5391073;26;20006;-70
2024/04/24 10:45:26;;;;;;;6.63;1.45;;;10.70;98.20;;;;;;5394636;26;20000;-71
2024/04/24 10:47:53;;;;;;;4.80;0.95;;;10.80;98.20;;;;;;5381559;26;20074;-69
2024/04/24 10:50:20;;;;;;;5.60;1.85;;;10.90;97.80;;;;;;5390065;26;20495;-70
2024/04/24 10:52:56;;;;;;;4.22;1.30;;;11.00;98.10;;;;;;5399061;26;20350;-68
2024/04/24 10:55:24;;;;;;;5.50;1.55;;;11.00;96.00;;;;;;5394166;26;20000;-68
2024/04/24 10:57:51;;;;;;;4.57;1.17;;;11.10;98.50;;;;;;5385292;26;20133;-68
2024/04/24 11:00:22;;;;;;;6.60;1.08;;;11.20;97.40;;;;;;5382386;26;20016;-68
2024/04/24 11:02:52;;;;;;;7.38;1.10;;;11.10;96.30;;;;;;5390677;26;20065;-67
2024/04/24 11:05:24;;;;;;;9.20;1.88;;;11.10;96.80;;;;;;5386364;26;20003;-68
2024/04/24 11:07:58;;;;;;;6.72;1.20;;;11.20;96.70;;;;;;5383114;26;20007;-68
2024/04/24 11:10:26;;;;;;;6.75;0.95;;;11.30;95.10;;;;;;5397217;26;20000;-68
2024/04/24 11:12:53;;;;;;;5.15;0.98;;;11.20;96.40;;;;;;5388797;26;20077;-68
2024/04/24 11:15:24;;;;;;;6.20;1.27;;;11.00;95.60;;;;;;5406945;26;20003;-69
2024/04/24 11:17:51;;;;;;;1.63;0.90;;;11.20;96.50;;;;;;5389717;26;20111;-68
2024/04/24 11:20:19;;;;;;;5.47;1.20;;;11.30;96.60;;;;;;5399576;26;20015;-68
2024/04/24 11:22:46;;;;;;;4.38;1.23;;;11.20;95.60;;;;;;5390503;26;20567;-68
2024/04/24 11:25:14;;;;;;;2.45;1.25;;;11.20;96.10;;;;;;5393768;26;20012;-68
2024/04/24 11:27:43;;;;;;;6.32;1.23;;;11.00;96.00;;;;;;5396515;26;20054;-68
2024/04/24 11:30:14;;;;;;;10.15;1.73;;;11.00;94.80;;;;;;5386142;26;20081;-68
2024/04/24 11:32:43;;;;;;;4.40;0.98;;;10.90;95.40;;;;;;5397147;26;20407;-69
2024/04/24 11:35:10;;;;;;;4.13;1.00;;;10.90;96.30;;;;;;5400567;26;20220;-69
2024/04/24 11:37:37;;;;;;;5.18;1.10;;;10.80;95.90;;;;;;5388566;26;20020;-68
2024/04/24 11:40:05;;;;;;;8.23;2.05;;;10.80;96.30;;;;;;5384008;26;20032;-69
2024/04/24 11:42:32;;;;;;;5.82;1.30;;;10.80;96.20;;;;;;5392385;26;20000;-69
2024/04/24 11:44:59;;;;;;;6.07;1.13;;;10.80;96.40;;;;;;5394548;26;20007;-69
2024/04/24 11:47:26;;;;;;;5.05;0.93;;;10.90;96.60;;;;;;5399561;26;20448;-70
2024/04/24 11:49:53;;;;;;;5.35;1.17;;;10.80;96.80;;;;;;5397864;26;20403;-69
2024/04/24 11:52:21;;;;;;;4.47;1.23;;;10.70;96.40;;;;;;5382518;26;20019;-69
2024/04/24 11:54:54;;;;;;;9.82;1.75;;;10.70;97.00;;;;;;5378626;26;20660;-69
2024/04/24 11:57:21;;;;;;;7.97;1.57;;;10.70;97.30;;;;;;5380853;26;20024;-69
2024/04/24 11:59:48;;;;;;;13.30;2.92;;;10.70;97.10;;;;;;5388374;26;20004;-69
2024/04/24 12:02:18;;;;;;;5.90;1.25;;;10.80;97.90;;;;;;5385269;26;20088;-69
2024/04/24 12:04:46;;;;;;;10.23;1.65;;;10.80;97.70;;;;;;5385880;26;19996;-69
2024/04/24 12:07:16;;;;;;;4.25;1.27;;;10.90;97.70;;;;;;5381893;26;20358;-69
2024/04/24 12:09:43;;;;;;;7.00;1.45;;;11.00;97.70;;;;;;5383483;26;20008;-69
2024/04/24 12:12:10;;;;;;;5.45;1.25;;;11.10;97.90;;;;;;5385084;26;20004;-69
2024/04/24 12:14:38;;;;;;;4.00;1.25;;;11.20;97.70;;;;;;5390826;26;19995;-68
2024/04/24 12:17:05;;;;;;;4.32;1.13;;;11.00;97.40;;;;;;5395143;26;20043;-68
2024/04/24 12:19:33;;;;;;;4.32;1.27;;;11.10;97.80;;;;;;5390001;26;20003;-69
2024/04/24 12:22:00;;;;;;;5.78;1.63;;;11.10;97.30;;;;;;5399400;26;20065;-69
2024/04/24 12:24:28;;;;;;;7.65;1.50;;;11.20;97.00;;;;;;5400485;26;20065;-69
2024/04/24 12:26:55;;;;;;;5.53;1.25;;;11.30;96.40;;;;;;5394652;26;20015;-68
2024/04/24 12:29:22;;;;;;;5.68;1.77;;;11.40;96.80;;;;;;5378836;26;20010;-68
2024/04/24 12:31:49;;;;;;;9.63;1.58;;;11.40;95.80;;;;;;5391581;26;20000;-69
2024/04/24 12:34:18;;;;;;;15.25;1.85;;;11.50;96.00;;;;;;5391055;26;19996;-68
2024/04/24 12:36:45;;;;;;;6.50;1.20;;;11.70;97.10;;;;;;5398133;26;20013;-68
2024/04/24 12:39:12;;;;;;;4.10;1.42;;;11.90;96.00;;;;;;5383731;26;20019;-69
2024/04/24 12:41:39;;;;;;;9.35;1.55;;;12.00;95.40;;;;;;5398405;26;20069;-68
2024/04/24 12:44:06;;;;;;;10.75;1.50;;;12.00;95.70;;;;;;5398150;26;19999;-69
2024/04/24 12:46:33;;;;;;;6.28;1.83;;;12.10;95.40;;;;;;5390613;26;20023;-69
2024/04/24 12:49:02;;;;;;;14.75;2.53;;;12.10;95.50;;;;;;5375349;26;20058;-68
2024/04/24 12:51:31;;;;;;;4.30;1.42;;;12.10;95.50;;;;;;5402345;26;20032;-69
2024/04/24 12:53:58;;;;;;;6.95;1.70;;;11.60;94.10;;;;;;5384954;26;20019;-68
2024/04/24 12:56:27;;;;;;;4.97;1.35;;;11.70;95.40;;;;;;5388680;26;19996;-68
2024/04/24 12:58:54;;;;;;;2.83;1.10;;;11.70;94.40;;;;;;5384253;26;20011;-68